Airfield :
LOGIN :

Register | Disclaimer

   EN    FR    IT 

 










Legend :    VFR   Marginal VFR   IFR   Intensive IFR   Very Intensive IFR
Visi :
Ceiling :
>= 8 km
>= 3000ft
5 to 8 km
1000 to 3000 ft
1500m to 5 km
500 to 1000 ft
800 to 1500m
200 to 500 ft
< 800m
< 200 ft
Symbols :   Thunderstorms  Fog  Heavy snow  Heavy precipitations  Wind > 20 kt
SIGMETs :     Misc.  Thunderstorms  Icing  Turbulence  Mountain Waves  Volcanic Ashes







- Airport Elevation : 102 ft
- IATA code : EXT
- Download approach charts


EGTE - Exeter

CURRENT METAR :
  • 181450Z 21014KT 9999 BKN024 19/15 Q1011

EXPIRED METARs :
  • 181420Z 22013KT 9999 BKN022 19/15 Q1011
  • 181350Z 22014KT 9999 BKN020 18/14 Q1011
  • 181320Z 21014KT 9999 BKN020 19/14 Q1010
  • 181250Z 22014KT 9999 BKN018 19/15 Q1010
  • 181220Z 22016KT 9999 BKN016 19/15 Q1010

TAF TAF EGTE
Valid from the 18 at 15:00 until the 19 at 00:00 UTC


181404Z 1815/1824 22015KT 9999 SCT020
TEMPO 1815/1824 23020G30KT
PROB30 1815/1818 9000 RA BKN012
PROB30
TEMPO 1820/1824 5000 SHRA BKN014CB
No reported NOTAMs for that airfield.
2 SIGMETs reported for the London FIR (EGTT) :
 
Severe turbulence
EGTT SIGMET 08 VALID 181400/181800 EGRR
EGTT LONDON FIR SEV TURB FCST WI N5500 W00232 - N5500 E00458 - N5459 E00458 - N5348 E00354 - N5351 W00234 - N5458 W00234 - N5500 W00232 SFC/FL060 MOV NE 15KT NC=
Severe mountain waves
EGTT SIGMET 07 VALID 181400/181800 EGRR
EGTT LONDON FIR SEV MTW FCST WI N5221 E00156 - N5039 W00347 - N5209 W00411 - N5500 W00420 - N5500 E00203 - N5221 E00156 FL040/240 STNR NC=



MET'MAP, your aeronautical weather chart ! - Copyright ORBIFLY December 2007 - Disclaimer

ORBIFLY MET'MAP TEAM :

Programming & Development : Alexandra Zaïnal
Concept & Development : Baudouin d'Aumeries
Co-Development & Prog : Marc-Olivier Méhu
Technical & hardware support : Manuel Goepfert

Contact : metmap@orbifly.com




SOURCES & CREDITS :

   NOAA